createdAt,value
2023-12-17T00:01:11.093Z,11.00
2023-12-17T00:03:38.020Z,11.00
2023-12-17T00:06:05.369Z,11.00
2023-12-17T00:08:32.357Z,11.00
2023-12-17T00:10:59.889Z,10.90
2023-12-17T00:13:27.216Z,11.00
2023-12-17T00:15:54.106Z,11.00
2023-12-17T00:18:21.064Z,11.00
2023-12-17T00:20:48.138Z,11.00
2023-12-17T00:23:15.034Z,10.90
2023-12-17T00:25:42.073Z,10.90
2023-12-17T00:28:09.168Z,10.90
2023-12-17T00:30:36.048Z,10.90
2023-12-17T00:33:03.184Z,10.90
2023-12-17T00:35:30.119Z,10.90
2023-12-17T00:37:57.103Z,10.90
2023-12-17T00:40:24.063Z,10.90
2023-12-17T00:42:50.920Z,10.90
2023-12-17T00:45:17.849Z,10.90
2023-12-17T00:47:44.932Z,10.90
2023-12-17T00:50:11.981Z,10.90
2023-12-17T00:52:38.891Z,10.90
2023-12-17T00:55:06.394Z,10.90
2023-12-17T00:57:34.107Z,10.90
2023-12-17T01:00:00.988Z,10.90
2023-12-17T01:02:27.874Z,10.90
2023-12-17T01:04:55.698Z,10.90
2023-12-17T01:07:22.536Z,10.90
2023-12-17T01:09:50.218Z,10.90
2023-12-17T01:12:17.083Z,10.90
2023-12-17T01:14:44.070Z,10.90
2023-12-17T01:17:11.078Z,10.90
2023-12-17T01:19:38.186Z,10.90
2023-12-17T01:22:05.506Z,10.90
2023-12-17T01:24:33.204Z,10.90
2023-12-17T01:27:00.962Z,10.90
2023-12-17T01:29:27.885Z,10.90
2023-12-17T01:31:55.647Z,10.90
2023-12-17T01:34:23.245Z,10.90
2023-12-17T01:36:50.676Z,10.80
2023-12-17T01:39:18.524Z,10.90
2023-12-17T01:41:46.229Z,10.80
2023-12-17T01:44:13.541Z,10.80
2023-12-17T01:46:41.958Z,10.80
2023-12-17T01:49:09.260Z,10.80
2023-12-17T01:51:38.194Z,10.90
2023-12-17T01:54:05.796Z,10.90
2023-12-17T01:56:33.517Z,10.80
2023-12-17T01:59:02.110Z,10.90
2023-12-17T02:01:29.503Z,10.90
2023-12-17T02:03:57.278Z,10.90
2023-12-17T02:06:24.436Z,10.90
2023-12-17T02:08:51.731Z,10.90
2023-12-17T02:11:18.914Z,10.90
2023-12-17T02:13:45.708Z,10.90
2023-12-17T02:16:14.313Z,10.90
2023-12-17T02:18:41.351Z,10.90
2023-12-17T02:21:08.420Z,10.90
2023-12-17T02:23:35.442Z,10.90
2023-12-17T02:26:04.501Z,10.90
2023-12-17T02:28:31.593Z,10.90
2023-12-17T02:30:58.517Z,10.90
2023-12-17T02:33:25.508Z,10.90
2023-12-17T02:35:52.564Z,10.90
2023-12-17T02:38:19.429Z,10.90
2023-12-17T02:40:47.100Z,10.90
2023-12-17T02:43:14.043Z,10.90
2023-12-17T02:45:41.089Z,10.90
2023-12-17T02:48:08.192Z,10.90
2023-12-17T02:50:35.216Z,10.90
2023-12-17T02:53:02.230Z,10.90
2023-12-17T02:55:29.048Z,11.00
2023-12-17T02:57:56.042Z,10.90
2023-12-17T03:00:23.105Z,11.00
2023-12-17T03:02:51.612Z,10.90
2023-12-17T03:05:18.837Z,11.00
2023-12-17T03:07:45.819Z,11.00
2023-12-17T03:10:12.861Z,10.90
2023-12-17T03:12:39.867Z,10.90
2023-12-17T03:15:07.602Z,10.90
2023-12-17T03:17:36.621Z,10.90
2023-12-17T03:20:07.894Z,10.90
2023-12-17T03:22:34.711Z,11.00
2023-12-17T03:25:02.372Z,10.90
2023-12-17T03:27:29.448Z,10.90
2023-12-17T03:29:56.380Z,10.90
2023-12-17T03:32:23.643Z,10.90
2023-12-17T03:34:50.747Z,10.90
2023-12-17T03:37:17.636Z,10.90
2023-12-17T03:39:44.436Z,10.90
2023-12-17T03:42:11.329Z,10.90
2023-12-17T03:44:38.321Z,10.90
2023-12-17T03:47:05.280Z,10.90
2023-12-17T03:49:32.171Z,10.80
2023-12-17T03:51:59.077Z,10.80
2023-12-17T03:54:26.036Z,10.90
2023-12-17T03:56:52.950Z,10.80
2023-12-17T03:59:19.829Z,10.80
2023-12-17T04:01:49.719Z,10.80
2023-12-17T04:04:16.640Z,10.90
2023-12-17T04:06:44.895Z,10.80
2023-12-17T04:09:12.244Z,10.80
2023-12-17T04:11:39.205Z,10.80
2023-12-17T04:14:07.179Z,10.80
2023-12-17T04:16:34.562Z,10.80
2023-12-17T04:19:01.510Z,10.80
2023-12-17T04:21:28.579Z,10.90
2023-12-17T04:23:57.541Z,10.80
2023-12-17T04:26:24.442Z,10.80
2023-12-17T04:28:51.376Z,10.90
2023-12-17T04:31:18.248Z,10.80
2023-12-17T04:33:45.799Z,10.80
2023-12-17T04:36:12.872Z,10.80
2023-12-17T04:38:39.745Z,10.80
2023-12-17T04:41:06.817Z,10.80
2023-12-17T04:43:34.410Z,10.80
2023-12-17T04:46:01.907Z,10.70
2023-12-17T04:48:29.023Z,10.70
2023-12-17T04:50:55.970Z,10.70
2023-12-17T04:53:23.087Z,10.70
2023-12-17T04:55:50.007Z,10.70
2023-12-17T04:58:17.103Z,10.60
2023-12-17T05:00:44.044Z,10.60
2023-12-17T05:03:11.229Z,10.70
2023-12-17T05:05:38.289Z,10.80
2023-12-17T05:08:05.363Z,11.10
2023-12-17T05:10:32.577Z,11.10
2023-12-17T05:12:59.948Z,11.00
2023-12-17T05:15:26.961Z,11.30
2023-12-17T05:17:54.009Z,11.30
2023-12-17T05:20:20.963Z,11.40
2023-12-17T05:22:47.800Z,11.50
2023-12-17T05:25:16.483Z,11.30
2023-12-17T05:27:44.435Z,11.40
2023-12-17T05:30:13.315Z,11.50
2023-12-17T05:32:41.370Z,11.60
2023-12-17T05:35:09.103Z,11.60
2023-12-17T05:37:36.010Z,11.50
2023-12-17T05:40:04.408Z,11.20
2023-12-17T05:42:32.475Z,11.10
2023-12-17T05:44:59.451Z,11.40
2023-12-17T05:47:26.391Z,11.30
2023-12-17T05:49:53.512Z,11.40
2023-12-17T05:52:20.500Z,11.20
2023-12-17T05:54:47.347Z,11.20
2023-12-17T05:57:14.371Z,11.20
2023-12-17T05:59:41.318Z,11.20
2023-12-17T06:02:09.024Z,11.60
2023-12-17T06:04:35.950Z,11.50
2023-12-17T06:07:03.309Z,11.60
2023-12-17T06:09:30.421Z,11.60
2023-12-17T06:11:58.754Z,11.50
2023-12-17T06:14:26.142Z,11.70
2023-12-17T06:16:52.993Z,11.60
2023-12-17T06:19:19.926Z,11.90
2023-12-17T06:21:46.909Z,11.80
2023-12-17T06:24:14.476Z,11.70
2023-12-17T06:26:41.310Z,11.80
2023-12-17T06:29:14.102Z,11.70
2023-12-17T06:31:41.551Z,11.80
2023-12-17T06:34:08.601Z,11.80
2023-12-17T06:36:35.594Z,11.90
2023-12-17T06:39:03.206Z,12.00
2023-12-17T06:41:30.138Z,11.90
2023-12-17T06:43:56.955Z,11.80
2023-12-17T06:46:23.783Z,11.80
2023-12-17T06:48:51.390Z,11.40
2023-12-17T06:51:19.283Z,11.60
2023-12-17T06:53:46.561Z,11.90
2023-12-17T06:56:15.007Z,12.10
2023-12-17T06:58:42.012Z,11.70
2023-12-17T07:01:09.648Z,11.30
2023-12-17T07:03:36.650Z,11.40
2023-12-17T07:06:04.034Z,11.20
2023-12-17T07:08:30.935Z,11.00
2023-12-17T07:10:57.805Z,10.70
2023-12-17T07:13:24.641Z,10.70
2023-12-17T07:15:51.455Z,10.60
2023-12-17T07:18:18.375Z,10.90
2023-12-17T07:20:45.544Z,10.80
2023-12-17T07:23:12.657Z,11.00
2023-12-17T07:25:39.868Z,11.00
2023-12-17T07:28:06.870Z,10.90
2023-12-17T07:30:34.844Z,11.10
2023-12-17T07:33:02.232Z,11.00
2023-12-17T07:35:29.527Z,11.00
2023-12-17T07:37:56.404Z,10.90
2023-12-17T07:40:23.364Z,10.80
2023-12-17T07:42:50.368Z,11.00
2023-12-17T07:45:17.340Z,10.90
2023-12-17T07:47:46.968Z,10.90
2023-12-17T07:50:14.972Z,10.80
2023-12-17T07:52:42.149Z,10.70
2023-12-17T07:55:09.612Z,10.80
2023-12-17T07:57:36.478Z,10.90
2023-12-17T08:00:04.215Z,10.90
2023-12-17T08:02:39.067Z,10.80
2023-12-17T08:05:07.139Z,10.70
2023-12-17T08:07:35.216Z,10.80
2023-12-17T08:10:03.410Z,10.70
2023-12-17T08:12:30.316Z,11.00
2023-12-17T08:14:57.261Z,10.90
2023-12-17T08:17:24.109Z,10.80
2023-12-17T08:19:51.011Z,11.00
2023-12-17T08:22:18.973Z,11.00
2023-12-17T08:24:45.982Z,10.60
2023-12-17T08:27:14.658Z,10.50
2023-12-17T08:29:42.165Z,10.40
2023-12-17T08:32:10.239Z,10.40
2023-12-17T08:34:37.383Z,10.30
2023-12-17T08:37:04.523Z,10.30
2023-12-17T08:39:31.533Z,10.40
2023-12-17T08:41:58.766Z,10.30
2023-12-17T08:44:26.784Z,10.30
2023-12-17T08:46:54.026Z,10.30
2023-12-17T08:49:21.768Z,10.20
2023-12-17T08:51:48.831Z,10.20
2023-12-17T08:54:15.747Z,10.10
2023-12-17T08:56:43.050Z,10.10
2023-12-17T08:59:10.042Z,10.10
2023-12-17T09:01:37.711Z,10.20
2023-12-17T09:04:05.076Z,10.10
2023-12-17T09:06:32.121Z,10.10
2023-12-17T09:08:59.092Z,10.10
2023-12-17T09:11:25.980Z,10.10
2023-12-17T09:13:56.584Z,10.10
2023-12-17T09:16:23.463Z,10.10
2023-12-17T09:18:50.872Z,10.10
2023-12-17T09:21:17.993Z,10.10
2023-12-17T09:23:44.967Z,10.10
2023-12-17T09:26:11.814Z,10.00
2023-12-17T09:28:39.515Z,10.20
2023-12-17T09:31:09.865Z,10.10
2023-12-17T09:33:38.306Z,10.00
2023-12-17T09:36:08.176Z,10.00
2023-12-17T09:38:35.015Z,10.00
2023-12-17T09:41:01.974Z,9.90
2023-12-17T09:43:29.024Z,9.90
2023-12-17T09:45:56.303Z,9.90
2023-12-17T09:48:24.991Z,9.90
2023-12-17T09:50:52.027Z,9.90
2023-12-17T09:53:18.944Z,9.90
2023-12-17T09:55:45.873Z,10.00
2023-12-17T09:58:13.064Z,10.00
2023-12-17T10:00:40.076Z,10.00
2023-12-17T10:03:09.793Z,10.00
2023-12-17T10:05:36.772Z,10.00
2023-12-17T10:08:03.770Z,10.00
2023-12-17T10:10:31.614Z,10.00
2023-12-17T10:12:58.773Z,10.40
2023-12-17T10:15:25.956Z,10.50
2023-12-17T10:17:53.622Z,10.60
2023-12-17T10:20:20.893Z,10.70
2023-12-17T10:22:59.507Z,10.60
2023-12-17T10:25:29.767Z,10.30
2023-12-17T10:28:01.703Z,10.10
2023-12-17T10:30:34.184Z,10.00
2023-12-17T10:33:03.564Z,10.00
2023-12-17T10:35:35.378Z,10.00
2023-12-17T10:38:06.810Z,9.90
2023-12-17T10:40:34.288Z,10.00
2023-12-17T10:43:03.399Z,10.00
2023-12-17T10:45:33.059Z,9.90
2023-12-17T10:48:01.797Z,9.90
2023-12-17T10:50:28.885Z,9.90
2023-12-17T10:52:56.098Z,9.80
2023-12-17T10:55:23.550Z,9.80
2023-12-17T10:58:04.913Z,9.80
2023-12-17T11:00:36.014Z,9.90
2023-12-17T11:03:09.431Z,9.90
2023-12-17T11:05:36.633Z,9.90
2023-12-17T11:08:05.285Z,10.00
2023-12-17T11:10:38.775Z,9.90
2023-12-17T11:13:06.191Z,10.00
2023-12-17T11:15:33.268Z,10.00
2023-12-17T11:18:00.564Z,10.00
2023-12-17T11:20:36.930Z,10.00
2023-12-17T11:23:06.084Z,10.10
2023-12-17T11:25:35.811Z,10.10
2023-12-17T11:28:04.047Z,10.20
2023-12-17T11:30:34.294Z,10.10
2023-12-17T11:33:03.883Z,10.10
2023-12-17T11:35:33.850Z,10.10
2023-12-17T11:38:00.734Z,10.30
2023-12-17T11:40:28.740Z,10.20
2023-12-17T11:43:06.467Z,10.20
2023-12-17T11:45:49.294Z,10.20
2023-12-17T11:48:21.801Z,10.30
2023-12-17T11:50:50.807Z,10.20
2023-12-17T11:53:20.684Z,10.20
2023-12-17T11:55:49.843Z,10.20
2023-12-17T11:58:21.634Z,10.30
2023-12-17T12:01:12.905Z,10.30
2023-12-17T12:03:42.247Z,10.30
2023-12-17T12:06:15.210Z,10.30
2023-12-17T12:08:47.500Z,10.30
2023-12-17T12:11:22.903Z,10.30
2023-12-17T12:13:51.847Z,10.30
2023-12-17T12:16:21.607Z,10.30
2023-12-17T12:18:48.732Z,10.30
2023-12-17T12:21:23.170Z,10.30
2023-12-17T12:23:58.084Z,10.30
2023-12-17T12:26:26.720Z,10.30
2023-12-17T12:29:02.597Z,10.30
2023-12-17T12:31:30.756Z,10.40
2023-12-17T12:34:01.477Z,10.30
2023-12-17T12:36:47.020Z,10.40
2023-12-17T12:39:16.419Z,10.40
2023-12-17T12:41:46.070Z,10.50
2023-12-17T12:44:15.044Z,10.50
2023-12-17T12:46:43.501Z,10.50
2023-12-17T12:49:10.476Z,10.60
2023-12-17T12:51:38.074Z,10.50
2023-12-17T12:54:05.406Z,10.60
2023-12-17T12:56:32.274Z,10.50
2023-12-17T12:58:59.289Z,10.60
2023-12-17T13:01:26.256Z,10.60
2023-12-17T13:03:53.339Z,10.60
2023-12-17T13:06:20.560Z,10.60
2023-12-17T13:08:47.578Z,10.60
2023-12-17T13:11:14.539Z,10.60
2023-12-17T13:13:41.471Z,10.60
2023-12-17T13:16:09.380Z,10.60
2023-12-17T13:18:36.398Z,10.60
2023-12-17T13:21:03.520Z,10.50
2023-12-17T13:23:30.346Z,10.60
2023-12-17T13:26:04.154Z,10.50
2023-12-17T13:28:38.026Z,10.50
2023-12-17T13:31:05.475Z,10.50
2023-12-17T13:33:32.611Z,10.50
2023-12-17T13:35:59.627Z,10.50
2023-12-17T13:38:27.673Z,10.50
2023-12-17T13:40:54.791Z,10.50
2023-12-17T13:43:23.269Z,10.40
2023-12-17T13:45:50.262Z,10.40
2023-12-17T13:48:17.725Z,10.40
2023-12-17T13:50:45.186Z,10.50
2023-12-17T13:53:17.870Z,10.40
2023-12-17T13:55:44.745Z,10.50
2023-12-17T13:58:11.827Z,10.40
2023-12-17T14:00:39.204Z,10.40
2023-12-17T14:03:07.973Z,10.40
2023-12-17T14:05:35.025Z,10.40
2023-12-17T14:08:02.055Z,10.30
2023-12-17T14:10:28.954Z,10.30
2023-12-17T14:12:56.167Z,10.30
2023-12-17T14:15:24.290Z,10.30
2023-12-17T14:17:52.007Z,10.20
2023-12-17T14:20:23.501Z,10.20
2023-12-17T14:22:53.858Z,10.20
2023-12-17T14:25:20.996Z,10.10
2023-12-17T14:27:49.083Z,10.00
2023-12-17T14:30:16.959Z,10.10
2023-12-17T14:32:44.357Z,10.00
2023-12-17T14:35:11.837Z,10.00
2023-12-17T14:37:39.148Z,10.00
2023-12-17T14:40:09.350Z,10.00
2023-12-17T14:42:37.885Z,10.00
2023-12-17T14:45:06.813Z,10.00
2023-12-17T14:47:33.996Z,10.00
2023-12-17T14:50:01.743Z,9.90
2023-12-17T14:52:29.250Z,9.90
2023-12-17T14:54:56.168Z,9.80
2023-12-17T14:57:23.226Z,9.80
2023-12-17T14:59:50.032Z,9.70
2023-12-17T15:02:17.192Z,9.70
2023-12-17T15:04:44.310Z,9.70
2023-12-17T15:07:14.205Z,9.70
2023-12-17T15:09:41.338Z,9.60
2023-12-17T15:12:08.914Z,9.60
2023-12-17T15:14:35.974Z,9.60
2023-12-17T15:17:03.101Z,9.50
2023-12-17T15:19:30.061Z,9.50
2023-12-17T15:21:56.876Z,9.40
2023-12-17T15:24:24.188Z,9.70
2023-12-17T15:26:51.121Z,9.50
2023-12-17T15:29:17.982Z,9.50
2023-12-17T15:31:45.040Z,9.40
2023-12-17T15:34:12.065Z,9.40
2023-12-17T15:36:44.838Z,9.50
2023-12-17T15:39:12.667Z,9.40
2023-12-17T15:41:39.807Z,9.40
2023-12-17T15:44:07.698Z,9.30
2023-12-17T15:46:34.654Z,9.30
2023-12-17T15:49:01.934Z,9.20
2023-12-17T15:51:29.555Z,9.20
2023-12-17T15:53:56.902Z,9.20
2023-12-17T15:56:24.156Z,9.20
2023-12-17T15:58:53.860Z,9.20
2023-12-17T16:01:20.925Z,9.10
2023-12-17T16:03:49.834Z,9.00
2023-12-17T16:06:18.211Z,9.10
2023-12-17T16:08:45.660Z,9.10
2023-12-17T16:11:12.666Z,9.10
2023-12-17T16:13:39.726Z,9.00
2023-12-17T16:16:06.916Z,9.00
2023-12-17T16:18:35.993Z,9.00
2023-12-17T16:21:04.988Z,9.10
2023-12-17T16:23:32.267Z,9.00
2023-12-17T16:25:59.169Z,9.00
2023-12-17T16:28:26.198Z,9.00
2023-12-17T16:30:54.079Z,9.00
2023-12-17T16:33:21.191Z,9.00
2023-12-17T16:35:50.415Z,8.90
2023-12-17T16:38:17.764Z,8.90
2023-12-17T16:40:45.749Z,8.90
2023-12-17T16:43:14.012Z,8.90
2023-12-17T16:45:46.031Z,8.90
2023-12-17T16:48:14.006Z,8.80
2023-12-17T16:50:40.995Z,8.80
2023-12-17T16:53:08.287Z,8.80
2023-12-17T16:55:35.461Z,8.80
2023-12-17T16:58:04.728Z,8.80
2023-12-17T17:00:32.833Z,8.80
2023-12-17T17:02:59.978Z,8.70
2023-12-17T17:05:27.249Z,8.70
2023-12-17T17:07:55.988Z,8.70
2023-12-17T17:10:23.046Z,8.70
2023-12-17T17:12:51.509Z,8.70
2023-12-17T17:15:18.951Z,8.70
2023-12-17T17:17:45.887Z,8.60
2023-12-17T17:20:13.961Z,8.70
2023-12-17T17:22:41.797Z,8.70
2023-12-17T17:25:09.540Z,8.60
2023-12-17T17:27:36.663Z,8.60
2023-12-17T17:30:04.620Z,8.60
2023-12-17T17:32:31.763Z,8.50
2023-12-17T17:34:58.874Z,8.50
2023-12-17T17:37:25.852Z,8.50
2023-12-17T17:39:54.355Z,8.50
2023-12-17T17:42:22.171Z,8.50
2023-12-17T17:44:49.147Z,8.50
2023-12-17T17:47:16.712Z,8.50
2023-12-17T17:49:43.742Z,8.50
2023-12-17T17:52:10.737Z,8.50
2023-12-17T17:54:38.070Z,8.40
2023-12-17T17:57:05.719Z,8.40
2023-12-17T17:59:32.674Z,8.50
2023-12-17T18:01:59.643Z,8.40
2023-12-17T18:04:26.708Z,8.40
2023-12-17T18:06:54.009Z,8.40
2023-12-17T18:09:20.998Z,8.40
2023-12-17T18:11:48.841Z,8.30
2023-12-17T18:14:15.915Z,8.30
2023-12-17T18:16:42.974Z,8.30
2023-12-17T18:19:10.006Z,8.30
2023-12-17T18:21:39.048Z,8.30
2023-12-17T18:24:07.212Z,8.30
2023-12-17T18:26:34.570Z,8.20
2023-12-17T18:29:01.566Z,8.20
2023-12-17T18:31:29.128Z,8.20
2023-12-17T18:33:57.614Z,8.30
2023-12-17T18:36:24.608Z,8.20
2023-12-17T18:38:51.628Z,8.10
2023-12-17T18:41:22.060Z,8.20
2023-12-17T18:43:49.128Z,8.10
2023-12-17T18:46:17.426Z,8.10
2023-12-17T18:48:45.216Z,8.10
2023-12-17T18:51:12.608Z,8.00
2023-12-17T18:53:40.962Z,8.00
2023-12-17T18:56:08.289Z,8.00
2023-12-17T18:58:35.576Z,8.00
2023-12-17T19:01:02.856Z,7.90
2023-12-17T19:03:30.760Z,7.90
2023-12-17T19:05:58.562Z,7.90
2023-12-17T19:08:25.819Z,7.90
2023-12-17T19:10:52.954Z,7.90
2023-12-17T19:13:19.894Z,7.90
2023-12-17T19:15:47.330Z,8.00
2023-12-17T19:18:15.477Z,7.90
2023-12-17T19:20:42.748Z,7.90
2023-12-17T19:23:09.699Z,7.90
2023-12-17T19:25:37.101Z,7.80
2023-12-17T19:28:04.800Z,7.90
2023-12-17T19:30:31.841Z,7.90
2023-12-17T19:33:02.306Z,7.80
2023-12-17T19:35:29.681Z,7.80
2023-12-17T19:37:57.516Z,7.80
2023-12-17T19:40:24.666Z,7.70
2023-12-17T19:42:51.619Z,7.80
2023-12-17T19:45:18.570Z,7.70
2023-12-17T19:47:45.865Z,7.70
2023-12-17T19:50:12.901Z,7.70
2023-12-17T19:52:40.237Z,7.70
2023-12-17T19:55:07.926Z,7.60
2023-12-17T19:57:34.932Z,7.60
2023-12-17T20:00:02.071Z,7.70
2023-12-17T20:02:31.529Z,7.70
2023-12-17T20:04:58.383Z,7.60
2023-12-17T20:07:25.388Z,7.60
2023-12-17T20:09:52.302Z,7.60
2023-12-17T20:12:19.312Z,7.60
2023-12-17T20:14:46.608Z,7.70
2023-12-17T20:17:14.598Z,7.70
2023-12-17T20:19:41.661Z,7.80
2023-12-17T20:22:08.498Z,7.80
2023-12-17T20:24:35.401Z,7.80
2023-12-17T20:27:03.391Z,7.90
2023-12-17T20:29:30.392Z,7.80
2023-12-17T20:31:57.213Z,7.90
2023-12-17T20:34:24.296Z,7.90
2023-12-17T20:36:51.157Z,7.90
2023-12-17T20:39:17.973Z,8.00
2023-12-17T20:41:44.825Z,8.00
2023-12-17T20:44:12.345Z,8.00
2023-12-17T20:46:39.957Z,8.00
2023-12-17T20:49:06.909Z,7.90
2023-12-17T20:51:33.862Z,8.00
2023-12-17T20:54:00.745Z,8.00
2023-12-17T20:56:27.674Z,8.00
2023-12-17T20:58:56.834Z,8.10
2023-12-17T21:01:23.732Z,8.10
2023-12-17T21:03:50.866Z,8.10
2023-12-17T21:06:22.201Z,8.10
2023-12-17T21:08:49.400Z,8.00
2023-12-17T21:11:16.768Z,8.10
2023-12-17T21:13:44.595Z,8.10
2023-12-17T21:16:11.444Z,8.10
2023-12-17T21:18:38.489Z,8.20
2023-12-17T21:21:05.620Z,8.10
2023-12-17T21:23:32.518Z,8.10
2023-12-17T21:25:59.396Z,8.20
2023-12-17T21:28:28.493Z,8.20
2023-12-17T21:30:55.818Z,8.10
2023-12-17T21:33:22.912Z,8.20
2023-12-17T21:35:49.907Z,8.20
2023-12-17T21:38:18.033Z,8.20
2023-12-17T21:40:46.332Z,8.20
2023-12-17T21:43:13.200Z,8.30
2023-12-17T21:45:40.139Z,8.30
2023-12-17T21:48:07.521Z,8.30
2023-12-17T21:50:34.438Z,8.30
2023-12-17T21:53:01.234Z,8.30
2023-12-17T21:55:28.321Z,8.30
2023-12-17T21:57:55.178Z,8.40
2023-12-17T22:00:22.067Z,8.40
2023-12-17T22:02:51.792Z,8.40
2023-12-17T22:05:22.270Z,8.40
2023-12-17T22:07:50.182Z,8.40
2023-12-17T22:10:17.946Z,8.40
2023-12-17T22:12:45.631Z,8.30
2023-12-17T22:15:12.777Z,8.40
2023-12-17T22:17:39.875Z,8.40
2023-12-17T22:20:07.962Z,8.40
2023-12-17T22:22:35.037Z,8.40
2023-12-17T22:25:02.556Z,8.30
2023-12-17T22:27:29.992Z,8.40
2023-12-17T22:30:00.634Z,8.40
2023-12-17T22:32:27.650Z,8.40
2023-12-17T22:34:54.666Z,8.40
2023-12-17T22:37:21.724Z,8.30
2023-12-17T22:39:49.225Z,8.40
2023-12-17T22:42:16.407Z,8.40
2023-12-17T22:44:45.192Z,8.40
2023-12-17T22:47:12.346Z,8.50
2023-12-17T22:49:39.513Z,8.40
2023-12-17T22:52:07.027Z,8.30
2023-12-17T22:54:37.287Z,8.40
2023-12-17T22:57:04.947Z,8.50
2023-12-17T22:59:31.912Z,8.50
2023-12-17T23:01:58.985Z,8.40
2023-12-17T23:04:25.937Z,8.50
2023-12-17T23:06:52.811Z,8.50
2023-12-17T23:09:19.698Z,8.50
2023-12-17T23:11:46.598Z,8.50
2023-12-17T23:14:13.591Z,8.50
2023-12-17T23:16:40.539Z,8.50
2023-12-17T23:19:07.516Z,8.50
2023-12-17T23:21:34.441Z,8.50
2023-12-17T23:24:01.443Z,8.50
2023-12-17T23:26:28.323Z,8.50
2023-12-17T23:28:55.186Z,8.50
2023-12-17T23:31:22.302Z,8.60
2023-12-17T23:33:49.292Z,8.60
2023-12-17T23:36:16.340Z,8.50
2023-12-17T23:38:43.234Z,8.50
2023-12-17T23:41:10.109Z,8.50
2023-12-17T23:43:37.494Z,8.50
2023-12-17T23:46:04.517Z,8.50
2023-12-17T23:48:31.614Z,8.50
2023-12-17T23:50:58.741Z,8.50
2023-12-17T23:53:25.734Z,8.50
2023-12-17T23:55:53.751Z,8.50
2023-12-17T23:58:20.742Z,8.60
